Time;durP1;ratioP1;P1;durP2;ratioP2;P2;SDS_P1;SDS_P2;PMS_P1;PMS_P2;Temp;Humidity;BMP_temperature;BMP_pressure;BME280_temperature;BME280_humidity;BME280_pressure;Samples;Min_cycle;Max_cycle;Signal;HPM_P1;HPM_P2
2022/06/11 00:01:15;;;;;;;29.05;5.28;;;;;;;;;;6171462;23;20112;-49
2022/06/11 00:03:41;;;;;;;24.80;6.53;;;;;;;;;;6171000;23;20016;-49
2022/06/11 00:06:07;;;;;;;24.95;4.72;;;;;;;;;;6178193;23;20053;-46
2022/06/11 00:08:33;;;;;;;20.42;5.43;;;;;;;;;;6174502;23;20017;-49
2022/06/11 00:10:58;;;;;;;20.20;4.88;;;;;;;;;;6179733;23;20012;-49
2022/06/11 00:13:23;;;;;;;19.85;5.25;;;;;;;;;;6171912;23;20891;-48
2022/06/11 00:15:50;;;;;;;26.05;5.22;;;;;;;;;;6181619;23;20867;-49
2022/06/11 00:18:15;;;;;;;20.58;5.25;;;;;;;;;;6172515;23;20308;-45
2022/06/11 00:20:41;;;;;;;31.38;6.72;;;;;;;;;;6175989;23;20059;-46
2022/06/11 00:23:07;;;;;;;20.70;5.57;;;;;;;;;;6175941;23;20076;-48
2022/06/11 00:25:34;;;;;;;24.30;6.30;;;;;;;;;;6179946;23;20072;-46
2022/06/11 00:28:00;;;;;;;27.50;5.53;;;;;;;;;;6174597;23;20013;-48
2022/06/11 00:30:25;;;;;;;25.40;5.60;;;;;;;;;;6176938;23;20013;-45
2022/06/11 00:32:51;;;;;;;24.17;6.55;;;;;;;;;;6178600;23;20100;-46
2022/06/11 00:35:16;;;;;;;22.45;5.13;;;;;;;;;;6168341;23;20009;-51
2022/06/11 00:37:41;;;;;;;22.02;4.82;;;;;;;;;;6182200;23;20009;-46
2022/06/11 00:40:08;;;;;;;23.42;6.53;;;;;;;;;;6171914;23;20029;-49
2022/06/11 00:42:34;;;;;;;17.90;5.55;;;;;;;;;;6177648;23;20009;-49
2022/06/11 00:45:18;;;;;;;30.80;5.22;;;;;;;;;;6180247;23;20089;-47
2022/06/11 00:47:45;;;;;;;21.23;5.03;;;;;;;;;;6174942;23;20065;-50
2022/06/11 00:50:37;;;;;;;24.65;6.03;;;;;;;;;;6177039;23;20012;-51
2022/06/11 00:53:05;;;;;;;21.67;6.10;;;;;;;;;;6166161;23;20009;-49
2022/06/11 00:55:32;;;;;;;20.50;5.10;;;;;;;;;;6175044;23;22309;-46
2022/06/11 00:57:57;;;;;;;19.95;5.55;;;;;;;;;;6179645;23;20020;-49
2022/06/11 01:00:28;;;;;;;19.00;5.80;;;;;;;;;;6173765;23;20009;-47
2022/06/11 01:02:53;;;;;;;23.83;5.93;;;;;;;;;;6179276;23;20701;-49
2022/06/11 01:05:30;;;;;;;21.27;5.35;;;;;;;;;;6172304;23;20709;-48
2022/06/11 01:08:16;;;;;;;20.60;5.32;;;;;;;;;;6179647;23;20012;-49
2022/06/11 01:11:01;;;;;;;25.95;4.70;;;;;;;;;;6175993;23;20012;-48
2022/06/11 01:13:33;;;;;;;16.13;5.85;;;;;;;;;;6173645;23;20569;-50
2022/06/11 01:16:10;;;;;;;16.33;4.97;;;;;;;;;;6172743;23;20013;-52
2022/06/11 01:18:37;;;;;;;17.05;4.75;;;;;;;;;;6147695;23;20020;-50
2022/06/11 01:21:05;;;;;;;16.25;3.90;;;;;;;;;;6170479;23;20948;-48
2022/06/11 01:23:49;;;;;;;17.42;5.38;;;;;;;;;;6176995;23;20087;-49
2022/06/11 01:26:14;;;;;;;17.23;5.05;;;;;;;;;;6176443;23;20028;-50
2022/06/11 01:28:58;;;;;;;27.00;7.07;;;;;;;;;;6178197;23;20015;-49
2022/06/11 01:31:30;;;;;;;20.85;5.30;;;;;;;;;;6174053;23;20092;-46
2022/06/11 01:34:16;;;;;;;30.95;6.03;;;;;;;;;;6179931;23;20009;-50
2022/06/11 01:36:43;;;;;;;20.92;5.35;;;;;;;;;;6174002;23;20658;-50
2022/06/11 01:39:19;;;;;;;22.63;5.00;;;;;;;;;;6176210;23;20029;-48
2022/06/11 01:41:50;;;;;;;28.20;5.82;;;;;;;;;;6178010;23;20016;-50
2022/06/11 01:44:25;;;;;;;37.45;5.72;;;;;;;;;;6174292;23;20024;-49
2022/06/11 01:46:51;;;;;;;18.80;5.03;;;;;;;;;;6178200;23;20021;-49
2022/06/11 01:49:19;;;;;;;17.45;5.10;;;;;;;;;;6177468;23;20021;-48
2022/06/11 01:51:44;;;;;;;13.80;4.70;;;;;;;;;;6172623;23;20017;-49
2022/06/11 01:54:20;;;;;;;26.20;5.50;;;;;;;;;;6173240;23;20013;-48
2022/06/11 01:56:48;;;;;;;20.88;6.03;;;;;;;;;;6175678;23;20669;-48
2022/06/11 01:59:16;;;;;;;19.05;4.55;;;;;;;;;;6179039;23;20112;-46
2022/06/11 02:01:56;;;;;;;20.83;5.22;;;;;;;;;;6176961;23;20013;-48
2022/06/11 02:04:28;;;;;;;22.77;4.93;;;;;;;;;;6178210;23;20072;-47
2022/06/11 02:07:04;;;;;;;17.08;4.95;;;;;;;;;;6177075;23;20021;-49
2022/06/11 02:09:48;;;;;;;24.42;5.50;;;;;;;;;;6177691;23;20021;-51
2022/06/11 02:12:13;;;;;;;30.13;5.65;;;;;;;;;;6178212;23;20016;-48
2022/06/11 02:14:44;;;;;;;23.77;5.57;;;;;;;;;;6171196;23;20438;-50
2022/06/11 02:17:15;;;;;;;24.08;5.20;;;;;;;;;;6178617;23;20036;-49
2022/06/11 02:19:43;;;;;;;21.20;5.32;;;;;;;;;;6176938;23;20085;-50
2022/06/11 02:22:15;;;;;;;19.02;6.55;;;;;;;;;;6179474;23;20498;-48
2022/06/11 02:24:44;;;;;;;20.65;4.95;;;;;;;;;;6178342;23;20013;-49
2022/06/11 02:27:12;;;;;;;19.10;5.88;;;;;;;;;;6178201;23;20035;-49
2022/06/11 02:29:39;;;;;;;20.85;6.63;;;;;;;;;;6179255;23;20001;-50
2022/06/11 02:32:07;;;;;;;30.98;6.47;;;;;;;;;;6179816;23;20459;-49
2022/06/11 02:34:36;;;;;;;17.73;5.03;;;;;;;;;;6171473;23;20283;-50
2022/06/11 02:37:09;;;;;;;31.02;5.63;;;;;;;;;;6179011;23;20093;-49
2022/06/11 02:39:36;;;;;;;20.25;5.75;;;;;;;;;;6176394;23;20024;-48
2022/06/11 02:42:03;;;;;;;20.33;5.78;;;;;;;;;;6178435;23;20040;-50
2022/06/11 02:44:28;;;;;;;22.92;6.95;;;;;;;;;;6176055;23;20039;-50
2022/06/11 02:46:54;;;;;;;22.10;5.07;;;;;;;;;;6178991;23;20017;-49
2022/06/11 02:49:28;;;;;;;22.33;5.63;;;;;;;;;;6174104;23;20009;-51
2022/06/11 02:51:56;;;;;;;21.48;5.53;;;;;;;;;;6179344;23;20072;-47
2022/06/11 02:54:22;;;;;;;24.15;6.65;;;;;;;;;;6171940;23;20399;-47
2022/06/11 02:56:48;;;;;;;26.73;6.10;;;;;;;;;;6176473;23;20009;-48
2022/06/11 02:59:14;;;;;;;30.08;6.55;;;;;;;;;;6177909;23;20028;-48
2022/06/11 03:01:40;;;;;;;20.73;4.68;;;;;;;;;;6178608;23;20009;-49
2022/06/11 03:04:05;;;;;;;26.75;6.63;;;;;;;;;;6177944;23;20031;-51
2022/06/11 03:06:31;;;;;;;18.17;5.78;;;;;;;;;;6177645;23;20018;-48
2022/06/11 03:08:57;;;;;;;33.95;5.55;;;;;;;;;;6175732;23;20017;-50
2022/06/11 03:11:23;;;;;;;18.73;5.88;;;;;;;;;;6165621;23;20063;-49
2022/06/11 03:13:49;;;;;;;27.75;6.50;;;;;;;;;;6179080;23;20009;-50
2022/06/11 03:16:14;;;;;;;27.70;5.80;;;;;;;;;;6173515;23;20468;-50
2022/06/11 03:18:40;;;;;;;24.65;6.28;;;;;;;;;;6179260;23;20042;-47
2022/06/11 03:21:05;;;;;;;24.80;6.30;;;;;;;;;;6180096;23;20009;-49
2022/06/11 03:23:30;;;;;;;33.22;6.90;;;;;;;;;;6179583;23;20017;-49
2022/06/11 03:25:56;;;;;;;20.75;5.22;;;;;;;;;;6174986;23;20021;-50
2022/06/11 03:28:23;;;;;;;28.88;6.03;;;;;;;;;;6178041;23;20036;-49
2022/06/11 03:30:49;;;;;;;17.73;6.38;;;;;;;;;;6178836;23;20009;-46
2022/06/11 03:33:14;;;;;;;34.50;6.53;;;;;;;;;;6176137;23;20044;-46
2022/06/11 03:35:41;;;;;;;25.65;5.80;;;;;;;;;;6178539;23;20041;-48
2022/06/11 03:38:07;;;;;;;25.73;5.85;;;;;;;;;;6177155;23;20013;-48
2022/06/11 03:40:33;;;;;;;22.95;6.07;;;;;;;;;;6173259;23;20097;-50
2022/06/11 03:42:58;;;;;;;27.65;5.55;;;;;;;;;;6182440;23;20005;-46
2022/06/11 03:45:24;;;;;;;20.00;6.32;;;;;;;;;;6174316;23;20037;-48
2022/06/11 03:47:49;;;;;;;25.23;5.60;;;;;;;;;;6175016;23;20027;-48
2022/06/11 03:50:22;;;;;;;20.50;5.32;;;;;;;;;;6176866;23;20040;-46
2022/06/11 03:52:47;;;;;;;20.30;5.43;;;;;;;;;;6178512;23;20008;-45
2022/06/11 03:55:13;;;;;;;32.15;5.75;;;;;;;;;;6176587;23;20092;-47
2022/06/11 03:57:38;;;;;;;20.50;5.55;;;;;;;;;;6177282;23;20012;-47
2022/06/11 04:00:04;;;;;;;27.73;5.30;;;;;;;;;;6174640;23;20044;-46
2022/06/11 04:02:30;;;;;;;21.23;5.65;;;;;;;;;;6178240;23;20504;-47
2022/06/11 04:04:55;;;;;;;31.52;6.38;;;;;;;;;;6176939;23;20010;-48
2022/06/11 04:07:20;;;;;;;18.75;5.20;;;;;;;;;;6173644;23;20781;-49
2022/06/11 04:09:46;;;;;;;22.15;5.00;;;;;;;;;;6178092;23;20320;-48
2022/06/11 04:12:15;;;;;;;23.98;4.80;;;;;;;;;;6175749;23;20013;-49
2022/06/11 04:14:41;;;;;;;18.30;4.83;;;;;;;;;;6180581;23;20005;-49
2022/06/11 04:17:08;;;;;;;32.83;6.07;;;;;;;;;;6178428;23;20013;-50
2022/06/11 04:19:36;;;;;;;26.75;5.43;;;;;;;;;;6170753;23;20013;-48
2022/06/11 04:22:02;;;;;;;23.88;6.72;;;;;;;;;;6182157;23;20025;-48
2022/06/11 04:24:28;;;;;;;22.15;4.72;;;;;;;;;;6172968;23;20781;-47
2022/06/11 04:26:54;;;;;;;22.42;5.22;;;;;;;;;;6175425;23;20017;-48
2022/06/11 04:29:21;;;;;;;17.02;4.85;;;;;;;;;;6171446;23;20120;-49
2022/06/11 04:31:48;;;;;;;25.20;5.03;;;;;;;;;;6179769;23;20009;-46
2022/06/11 04:34:14;;;;;;;20.38;5.10;;;;;;;;;;6173871;23;20012;-46
2022/06/11 04:36:40;;;;;;;20.45;5.45;;;;;;;;;;6180998;23;20009;-47
2022/06/11 04:39:06;;;;;;;21.13;4.82;;;;;;;;;;6174491;23;20110;-49
2022/06/11 04:41:32;;;;;;;19.52;4.65;;;;;;;;;;6175850;23;20020;-48
2022/06/11 04:43:57;;;;;;;23.77;4.60;;;;;;;;;;6176356;23;20005;-49
2022/06/11 04:46:22;;;;;;;22.30;5.05;;;;;;;;;;6177738;23;20040;-48
2022/06/11 04:48:48;;;;;;;18.15;5.22;;;;;;;;;;6178378;23;20009;-48
2022/06/11 04:51:14;;;;;;;15.98;4.82;;;;;;;;;;6174784;23;20009;-47
2022/06/11 04:53:40;;;;;;;29.15;5.13;;;;;;;;;;6174881;23;20463;-50
2022/06/11 04:56:06;;;;;;;28.52;5.68;;;;;;;;;;6178726;23;20043;-48
2022/06/11 04:58:31;;;;;;;27.67;5.28;;;;;;;;;;6169128;23;20069;-48
2022/06/11 05:00:56;;;;;;;18.45;4.53;;;;;;;;;;6178340;23;20037;-49
2022/06/11 05:03:22;;;;;;;21.60;5.68;;;;;;;;;;6149144;23;20013;-47
2022/06/11 05:05:47;;;;;;;23.25;5.28;;;;;;;;;;6177887;23;20047;-47
2022/06/11 05:08:14;;;;;;;28.40;5.25;;;;;;;;;;6174946;23;20032;-49
2022/06/11 05:10:39;;;;;;;26.65;5.45;;;;;;;;;;6175888;23;20039;-47
2022/06/11 05:13:05;;;;;;;25.80;5.05;;;;;;;;;;6176872;23;20013;-51
2022/06/11 05:15:31;;;;;;;25.13;4.63;;;;;;;;;;6176243;23;20024;-51
2022/06/11 05:17:57;;;;;;;22.45;4.95;;;;;;;;;;6177800;23;20009;-48
2022/06/11 05:20:22;;;;;;;20.95;4.65;;;;;;;;;;6178337;23;20040;-49
2022/06/11 05:22:48;;;;;;;23.38;5.97;;;;;;;;;;6175737;23;20488;-47
2022/06/11 05:25:15;;;;;;;18.70;4.68;;;;;;;;;;6179606;23;20016;-50
2022/06/11 05:27:42;;;;;;;21.60;4.80;;;;;;;;;;6175831;23;20028;-50
2022/06/11 05:30:13;;;;;;;14.60;4.43;;;;;;;;;;6177548;23;20052;-50
2022/06/11 05:32:40;;;;;;;23.90;5.40;;;;;;;;;;6176974;23;20020;-48
2022/06/11 05:35:07;;;;;;;28.13;7.60;;;;;;;;;;6178067;23;20013;-47
2022/06/11 05:37:32;;;;;;;20.45;5.50;;;;;;;;;;6173122;23;20236;-51
2022/06/11 05:39:57;;;;;;;31.95;5.43;;;;;;;;;;6178597;23;20021;-50
2022/06/11 05:42:24;;;;;;;28.42;7.50;;;;;;;;;;6174955;23;20027;-47
2022/06/11 05:44:49;;;;;;;20.85;4.60;;;;;;;;;;6182791;23;20021;-48
2022/06/11 05:47:18;;;;;;;22.48;5.95;;;;;;;;;;6173848;23;20025;-47
2022/06/11 05:49:45;;;;;;;23.05;4.82;;;;;;;;;;6178749;23;20080;-51
2022/06/11 05:52:16;;;;;;;13.85;5.00;;;;;;;;;;6180329;23;20009;-52
2022/06/11 05:54:42;;;;;;;20.83;4.85;;;;;;;;;;6145228;23;20009;-49
2022/06/11 05:57:09;;;;;;;19.27;4.20;;;;;;;;;;6178601;23;20013;-47
2022/06/11 05:59:38;;;;;;;18.95;4.45;;;;;;;;;;6176942;23;20028;-48
2022/06/11 06:02:08;;;;;;;14.90;4.38;;;;;;;;;;6183963;23;20013;-48
2022/06/11 06:04:34;;;;;;;25.90;5.68;;;;;;;;;;6176193;23;20017;-50
2022/06/11 06:06:59;;;;;;;19.55;5.35;;;;;;;;;;6180633;23;20051;-46
2022/06/11 06:09:24;;;;;;;32.80;4.82;;;;;;;;;;6174667;23;20035;-52
2022/06/11 06:11:49;;;;;;;29.23;5.80;;;;;;;;;;6181860;23;20001;-50
2022/06/11 06:14:15;;;;;;;19.77;5.25;;;;;;;;;;6174413;23;20063;-49
2022/06/11 06:16:40;;;;;;;20.67;5.45;;;;;;;;;;6151631;23;20048;-48
2022/06/11 06:19:05;;;;;;;15.95;4.20;;;;;;;;;;6179682;23;20028;-47
2022/06/11 06:21:32;;;;;;;24.63;5.70;;;;;;;;;;6178252;23;20022;-48
2022/06/11 06:23:57;;;;;;;26.30;5.45;;;;;;;;;;6179394;23;20009;-50
2022/06/11 06:26:23;;;;;;;19.17;5.13;;;;;;;;;;6175105;23;20052;-46
2022/06/11 06:28:48;;;;;;;22.25;4.93;;;;;;;;;;6182249;23;20025;-47
2022/06/11 06:31:14;;;;;;;17.50;4.63;;;;;;;;;;6175073;23;20024;-47
2022/06/11 06:33:40;;;;;;;19.38;5.22;;;;;;;;;;6181704;23;20009;-47
2022/06/11 06:36:06;;;;;;;19.33;4.60;;;;;;;;;;6175312;23;20100;-49
2022/06/11 06:38:31;;;;;;;27.10;4.70;;;;;;;;;;6178507;23;20017;-48
2022/06/11 06:40:57;;;;;;;21.67;5.05;;;;;;;;;;6176129;23;20509;-51
2022/06/11 06:43:22;;;;;;;22.83;4.28;;;;;;;;;;6175799;23;20009;-47
2022/06/11 06:45:48;;;;;;;20.52;4.45;;;;;;;;;;6175875;23;20065;-48
2022/06/11 06:48:13;;;;;;;22.98;5.40;;;;;;;;;;6178260;23;20033;-48
2022/06/11 06:50:39;;;;;;;17.63;4.80;;;;;;;;;;6174465;23;20032;-49
2022/06/11 06:53:04;;;;;;;19.92;4.97;;;;;;;;;;6175308;23;20451;-47
2022/06/11 06:55:30;;;;;;;18.35;3.85;;;;;;;;;;6176909;23;20079;-53
2022/06/11 06:57:55;;;;;;;15.70;4.30;;;;;;;;;;6176741;23;20009;-51
2022/06/11 07:00:20;;;;;;;22.23;5.03;;;;;;;;;;6179010;23;20020;-51
2022/06/11 07:02:46;;;;;;;20.80;3.70;;;;;;;;;;6179136;23;20005;-53
2022/06/11 07:05:12;;;;;;;17.17;4.07;;;;;;;;;;6179457;23;20024;-51
2022/06/11 07:07:38;;;;;;;18.73;4.45;;;;;;;;;;6176132;23;20021;-49
2022/06/11 07:10:03;;;;;;;20.63;4.15;;;;;;;;;;6155069;23;20036;-48
2022/06/11 07:12:29;;;;;;;17.80;3.90;;;;;;;;;;6174671;23;20037;-49
2022/06/11 07:14:54;;;;;;;15.32;3.80;;;;;;;;;;6179542;23;20463;-50
2022/06/11 07:17:20;;;;;;;19.20;4.47;;;;;;;;;;6174575;23;20071;-50
2022/06/11 07:19:48;;;;;;;15.60;3.65;;;;;;;;;;6180253;23;20022;-51
2022/06/11 07:22:17;;;;;;;13.60;4.63;;;;;;;;;;6167917;23;20017;-48
2022/06/11 07:24:42;;;;;;;15.43;4.65;;;;;;;;;;6181143;23;20013;-50
2022/06/11 07:27:11;;;;;;;16.38;4.20;;;;;;;;;;6176616;23;20021;-48
2022/06/11 07:29:37;;;;;;;12.57;3.35;;;;;;;;;;6177863;23;20044;-51
2022/06/11 07:32:06;;;;;;;20.65;4.25;;;;;;;;;;6179647;23;20010;-48
2022/06/11 07:34:32;;;;;;;21.40;4.25;;;;;;;;;;6176079;23;20013;-49
2022/06/11 07:36:57;;;;;;;19.48;4.00;;;;;;;;;;6178654;23;20015;-47
2022/06/11 07:39:23;;;;;;;16.45;3.47;;;;;;;;;;6174951;23;20032;-50
2022/06/11 07:41:48;;;;;;;15.55;4.32;;;;;;;;;;6151806;23;20020;-48
2022/06/11 07:44:13;;;;;;;14.88;3.90;;;;;;;;;;6174355;23;20033;-49
2022/06/11 07:46:39;;;;;;;26.73;6.57;;;;;;;;;;6178911;23;20025;-48
2022/06/11 07:49:04;;;;;;;14.52;4.07;;;;;;;;;;6179285;23;20028;-49
2022/06/11 07:51:29;;;;;;;16.42;3.70;;;;;;;;;;6170757;23;22371;-47
2022/06/11 07:53:54;;;;;;;18.33;4.38;;;;;;;;;;6179883;23;20092;-49
2022/06/11 07:56:20;;;;;;;11.02;3.97;;;;;;;;;;6171908;23;20096;-48
2022/06/11 07:58:45;;;;;;;18.83;4.53;;;;;;;;;;6175456;23;20028;-48
2022/06/11 08:01:11;;;;;;;15.18;3.75;;;;;;;;;;6176796;23;20028;-47
2022/06/11 08:03:38;;;;;;;22.02;4.43;;;;;;;;;;6178175;23;20344;-50
2022/06/11 08:06:04;;;;;;;16.63;4.00;;;;;;;;;;6174114;23;20574;-46
2022/06/11 08:08:29;;;;;;;17.80;4.43;;;;;;;;;;6177391;23;20009;-49
2022/06/11 08:10:55;;;;;;;23.95;4.50;;;;;;;;;;6178097;23;20028;-48
2022/06/11 08:13:20;;;;;;;10.75;3.50;;;;;;;;;;6176926;23;20005;-48
2022/06/11 08:15:47;;;;;;;16.55;5.32;;;;;;;;;;6149044;23;20013;-49
2022/06/11 08:18:12;;;;;;;18.13;4.28;;;;;;;;;;6147968;23;20016;-49
2022/06/11 08:20:38;;;;;;;16.90;3.42;;;;;;;;;;6178187;23;20012;-49
2022/06/11 08:23:04;;;;;;;15.27;3.55;;;;;;;;;;6173119;23;20017;-47
2022/06/11 08:25:29;;;;;;;18.40;4.13;;;;;;;;;;6176842;23;20017;-51
2022/06/11 08:27:56;;;;;;;14.80;3.55;;;;;;;;;;6174139;23;20020;-47
2022/06/11 08:30:22;;;;;;;9.57;4.35;;;;;;;;;;6174402;23;20016;-48
2022/06/11 08:32:47;;;;;;;15.00;3.90;;;;;;;;;;6177688;23;20005;-47
2022/06/11 08:35:13;;;;;;;12.27;3.72;;;;;;;;;;6151218;23;20013;-47
2022/06/11 08:37:38;;;;;;;15.32;4.40;;;;;;;;;;6174562;23;20028;-47
2022/06/11 08:40:12;;;;;;;16.48;3.85;;;;;;;;;;6177951;23;20040;-48
2022/06/11 08:42:39;;;;;;;16.73;3.72;;;;;;;;;;6171362;23;20005;-47
2022/06/11 08:45:33;;;;;;;17.58;3.70;;;;;;;;;;6150188;23;20013;-48
2022/06/11 08:48:02;;;;;;;9.65;3.55;;;;;;;;;;6153612;23;20040;-51
2022/06/11 08:50:30;;;;;;;19.38;4.50;;;;;;;;;;6168183;23;20443;-50
2022/06/11 08:52:55;;;;;;;15.43;3.88;;;;;;;;;;6172196;23;20024;-49
2022/06/11 08:55:21;;;;;;;15.85;3.42;;;;;;;;;;6168945;23;20351;-51
2022/06/11 08:57:54;;;;;;;13.90;3.40;;;;;;;;;;6171729;23;20013;-51
2022/06/11 09:00:27;;;;;;;9.07;2.65;;;;;;;;;;6172852;23;20057;-48
2022/06/11 09:02:52;;;;;;;23.45;5.70;;;;;;;;;;6172160;23;20015;-48
2022/06/11 09:05:18;;;;;;;13.45;3.00;;;;;;;;;;6174443;23;20059;-49
2022/06/11 09:07:51;;;;;;;13.80;3.10;;;;;;;;;;6168662;23;20032;-48
2022/06/11 09:10:24;;;;;;;14.02;3.25;;;;;;;;;;6172937;23;20009;-52
2022/06/11 09:12:58;;;;;;;12.30;3.38;;;;;;;;;;6141972;23;20660;-50
2022/06/11 09:15:45;;;;;;;8.15;2.65;;;;;;;;;;6170021;23;20027;-52
2022/06/11 09:18:10;;;;;;;10.60;2.35;;;;;;;;;;6169442;23;20023;-52
2022/06/11 09:20:41;;;;;;;8.63;2.30;;;;;;;;;;6164651;23;20080;-53
2022/06/11 09:23:25;;;;;;;11.23;3.63;;;;;;;;;;6170087;23;20239;-51
2022/06/11 09:26:13;;;;;;;8.57;2.70;;;;;;;;;;6168060;23;20055;-50
2022/06/11 09:28:57;;;;;;;9.07;2.85;;;;;;;;;;6175587;23;20023;-50
2022/06/11 09:31:27;;;;;;;8.75;2.88;;;;;;;;;;6174633;23;20608;-51
2022/06/11 09:34:02;;;;;;;14.98;3.42;;;;;;;;;;6169680;23;20024;-47
2022/06/11 09:36:34;;;;;;;16.52;3.53;;;;;;;;;;6173042;23;20024;-49
2022/06/11 09:41:46;;;;;;;10.23;2.75;;;;;;;;;;6146319;23;20028;-49
2022/06/11 09:44:26;;;;;;;9.63;3.35;;;;;;;;;;6137708;23;20018;-48
2022/06/11 09:46:59;;;;;;;13.52;3.10;;;;;;;;;;6140815;23;20026;-49
2022/06/11 09:49:42;;;;;;;17.98;3.05;;;;;;;;;;6142088;23;20020;-51
2022/06/11 09:52:11;;;;;;;18.95;3.38;;;;;;;;;;6143163;23;20443;-48
2022/06/11 09:54:51;;;;;;;11.45;3.10;;;;;;;;;;6147882;23;20018;-49
2022/06/11 09:57:37;;;;;;;11.13;2.97;;;;;;;;;;6145750;23;20050;-47
2022/06/11 10:00:29;;;;;;;9.75;2.60;;;;;;;;;;6117619;23;20006;-49
2022/06/11 10:03:31;;;;;;;12.85;3.08;;;;;;;;;;6148405;23;20809;-49
2022/06/11 10:05:57;;;;;;;11.93;3.90;;;;;;;;;;6147429;23;20060;-47
2022/06/11 10:08:35;;;;;;;12.05;3.47;;;;;;;;;;6141221;23;20593;-49
2022/06/11 10:11:04;;;;;;;9.68;2.90;;;;;;;;;;6148406;23;20018;-48
2022/06/11 10:13:32;;;;;;;16.05;3.05;;;;;;;;;;6140811;23;20081;-48
2022/06/11 10:16:01;;;;;;;11.93;3.20;;;;;;;;;;6150953;23;20021;-46
2022/06/11 10:18:29;;;;;;;9.77;3.20;;;;;;;;;;6140259;23;20768;-48
2022/06/11 10:21:10;;;;;;;16.23;3.67;;;;;;;;;;6142179;23;20745;-49
2022/06/11 10:23:42;;;;;;;16.58;4.28;;;;;;;;;;6113146;23;20008;-50
2022/06/11 10:26:07;;;;;;;14.68;3.30;;;;;;;;;;6125760;23;20048;-49
2022/06/11 10:28:38;;;;;;;15.60;3.10;;;;;;;;;;6141365;23;20006;-50
2022/06/11 10:31:24;;;;;;;10.68;3.25;;;;;;;;;;6146573;23;20248;-49
2022/06/11 10:34:02;;;;;;;13.55;3.03;;;;;;;;;;6114252;23;20464;-52
2022/06/11 10:36:32;;;;;;;10.60;2.75;;;;;;;;;;6146057;23;20013;-51
2022/06/11 10:38:57;;;;;;;13.73;3.55;;;;;;;;;;6134062;23;20013;-51
2022/06/11 10:41:29;;;;;;;16.73;3.67;;;;;;;;;;6140597;23;20076;-53
2022/06/11 10:44:14;;;;;;;10.15;3.13;;;;;;;;;;6169447;23;20288;-48
2022/06/11 10:46:40;;;;;;;9.38;2.42;;;;;;;;;;6169817;23;20056;-50
2022/06/11 10:49:11;;;;;;;15.05;3.55;;;;;;;;;;6169674;23;20375;-49
2022/06/11 10:51:37;;;;;;;11.10;2.78;;;;;;;;;;6169769;23;20005;-50
2022/06/11 10:54:12;;;;;;;13.73;3.03;;;;;;;;;;6168322;23;20031;-51
2022/06/11 10:56:40;;;;;;;10.18;2.10;;;;;;;;;;6170468;23;20041;-51
2022/06/11 10:59:12;;;;;;;16.70;3.30;;;;;;;;;;6168349;23;20132;-53
2022/06/11 11:01:43;;;;;;;13.90;2.35;;;;;;;;;;6165505;23;20032;-53
2022/06/11 11:04:14;;;;;;;10.40;4.03;;;;;;;;;;6146576;23;20050;-51
2022/06/11 11:06:41;;;;;;;9.85;2.80;;;;;;;;;;6170689;23;20076;-52
2022/06/11 11:09:11;;;;;;;11.55;3.00;;;;;;;;;;6165091;23;20013;-50
2022/06/11 11:11:36;;;;;;;;;;;;;;;;;;6170800;23;20063;-49
2022/06/11 11:14:07;;;;;;;9.68;2.83;;;;;;;;;;6166974;23;19904;-51
2022/06/11 11:16:36;;;;;;;10.93;2.45;;;;;;;;;;6170177;23;20009;-49
2022/06/11 11:19:02;;;;;;;;;;;;;;;;;;6167351;23;20013;-49
2022/06/11 11:21:34;;;;;;;14.07;2.63;;;;;;;;;;6168806;23;19958;-50
2022/06/11 11:24:05;;;;;;;5.88;1.75;;;;;;;;;;6166601;23;20005;-50
2022/06/11 11:26:35;;;;;;;12.75;2.35;;;;;;;;;;6171255;23;20032;-51
2022/06/11 11:29:00;;;;;;;;;;;;;;;;;;6164710;23;20024;-54
2022/06/11 11:31:27;;;;;;;8.25;2.97;;;;;;;;;;6170460;23;19924;-53
2022/06/11 11:34:11;;;;;;;9.48;2.60;;;;;;;;;;6166655;23;20005;-51
2022/06/11 11:36:37;;;;;;;9.15;2.65;;;;;;;;;;6167613;23;20016;-52
2022/06/11 11:39:23;;;;;;;11.38;2.38;;;;;;;;;;6169901;23;20005;-53
2022/06/11 11:41:50;;;;;;;10.77;2.67;;;;;;;;;;6163759;23;20481;-49
2022/06/11 11:44:19;;;;;;;7.13;2.47;;;;;;;;;;6169840;23;20064;-49
2022/06/11 11:46:46;;;;;;;17.50;2.93;;;;;;;;;;6171902;23;20020;-49
2022/06/11 11:49:23;;;;;;;12.10;3.00;;;;;;;;;;6115853;23;20730;-50
2022/06/11 11:51:49;;;;;;;10.02;2.75;;;;;;;;;;6142230;23;20013;-49
2022/06/11 11:54:17;;;;;;;6.82;2.42;;;;;;;;;;6128739;23;20037;-51
2022/06/11 11:56:47;;;;;;;12.35;3.03;;;;;;;;;;6133761;23;20013;-49
2022/06/11 11:59:18;;;;;;;6.80;2.35;;;;;;;;;;6129602;23;20498;-48
2022/06/11 12:01:45;;;;;;;12.90;3.67;;;;;;;;;;6136569;23;20184;-52
2022/06/11 12:04:29;;;;;;;13.02;3.95;;;;;;;;;;6130973;23;20017;-51
2022/06/11 12:06:54;;;;;;;9.63;2.72;;;;;;;;;;6122302;23;20467;-48
2022/06/11 12:09:46;;;;;;;16.15;3.28;;;;;;;;;;6132086;23;20024;-49
2022/06/11 12:12:22;;;;;;;9.10;2.30;;;;;;;;;;6132691;23;20021;-51
2022/06/11 12:14:52;;;;;;;11.43;4.43;;;;;;;;;;6136507;23;20041;-49
2022/06/11 12:17:23;;;;;;;6.47;2.33;;;;;;;;;;6130967;23;20389;-49
2022/06/11 12:19:50;;;;;;;14.80;3.40;;;;;;;;;;6136307;23;20041;-50
2022/06/11 12:22:28;;;;;;;6.40;2.63;;;;;;;;;;6129737;23;20026;-52
2022/06/11 12:24:54;;;;;;;16.10;3.35;;;;;;;;;;6132772;23;20010;-52
2022/06/11 12:27:34;;;;;;;12.48;3.00;;;;;;;;;;6132000;23;20068;-51
2022/06/11 12:30:23;;;;;;;6.82;3.42;;;;;;;;;;6098279;23;20445;-51
2022/06/11 12:32:48;;;;;;;8.88;2.72;;;;;;;;;;6130880;23;20013;-50
2022/06/11 12:35:20;;;;;;;9.48;3.03;;;;;;;;;;6134748;23;20020;-50
2022/06/11 12:37:50;;;;;;;9.43;2.95;;;;;;;;;;6134751;23;20040;-52
2022/06/11 12:40:20;;;;;;;8.32;2.80;;;;;;;;;;6137626;23;20351;-52
2022/06/11 12:42:49;;;;;;;7.88;2.70;;;;;;;;;;6136676;23;20028;-51
2022/06/11 12:45:14;;;;;;;9.27;3.42;;;;;;;;;;6135886;23;20018;-50
2022/06/11 12:47:42;;;;;;;11.63;3.53;;;;;;;;;;6138234;23;20051;-51
2022/06/11 12:50:10;;;;;;;6.72;2.40;;;;;;;;;;6136898;23;20029;-51
2022/06/11 12:52:45;;;;;;;9.43;2.85;;;;;;;;;;6139674;23;20108;-52
2022/06/11 12:55:31;;;;;;;5.80;2.58;;;;;;;;;;6133385;23;20135;-48
2022/06/11 12:58:02;;;;;;;7.32;2.63;;;;;;;;;;6165563;23;20020;-51
2022/06/11 13:00:51;;;;;;;8.85;3.28;;;;;;;;;;6167105;23;20100;-51
2022/06/11 13:03:34;;;;;;;10.07;2.97;;;;;;;;;;6166837;23;20028;-52
2022/06/11 13:06:05;;;;;;;7.78;3.28;;;;;;;;;;6165514;23;20040;-51
2022/06/11 13:08:43;;;;;;;12.93;3.28;;;;;;;;;;6167272;23;20087;-49
2022/06/11 13:11:36;;;;;;;9.02;3.03;;;;;;;;;;6166353;23;20021;-49
2022/06/11 13:14:07;;;;;;;11.07;3.70;;;;;;;;;;6165676;23;20009;-51
2022/06/11 13:16:38;;;;;;;8.95;2.95;;;;;;;;;;6160975;23;20389;-51
2022/06/11 13:19:12;;;;;;;9.00;3.05;;;;;;;;;;6168608;23;20009;-49
2022/06/11 13:21:45;;;;;;;10.18;3.13;;;;;;;;;;6162732;23;20009;-50
2022/06/11 13:24:28;;;;;;;10.20;4.65;;;;;;;;;;6170930;23;20040;-51
2022/06/11 13:27:02;;;;;;;14.63;3.30;;;;;;;;;;6171053;23;20033;-51
2022/06/11 13:29:34;;;;;;;12.55;3.22;;;;;;;;;;6167870;23;20028;-51
2022/06/11 13:32:14;;;;;;;9.13;3.42;;;;;;;;;;6166722;23;20013;-52
2022/06/11 13:34:58;;;;;;;10.20;3.47;;;;;;;;;;6162530;23;20009;-53
2022/06/11 13:37:30;;;;;;;10.80;3.15;;;;;;;;;;6164319;23;20021;-47
2022/06/11 13:40:20;;;;;;;4.75;2.65;;;;;;;;;;6169421;23;20016;-51
2022/06/11 13:42:51;;;;;;;8.23;2.53;;;;;;;;;;6169101;23;20017;-52
2022/06/11 13:45:26;;;;;;;11.05;3.03;;;;;;;;;;6165424;23;20067;-51
2022/06/11 13:47:54;;;;;;;6.20;2.50;;;;;;;;;;6165921;23;20064;-51
2022/06/11 13:50:35;;;;;;;6.25;2.28;;;;;;;;;;6167423;23;20013;-49
2022/06/11 13:55:51;;;;;;;6.53;2.70;;;;;;;;;;6169725;23;20067;-53
2022/06/11 13:58:19;;;;;;;7.22;2.78;;;;;;;;;;6165180;23;20013;-52
2022/06/11 14:01:02;;;;;;;8.88;2.95;;;;;;;;;;6164778;23;20136;-53
2022/06/11 14:03:36;;;;;;;12.00;3.33;;;;;;;;;;6167571;23;20016;-51
2022/06/11 14:06:04;;;;;;;7.78;2.50;;;;;;;;;;6170812;23;20515;-50
2022/06/11 14:08:53;;;;;;;7.72;2.75;;;;;;;;;;6168142;23;20009;-50
2022/06/11 14:11:19;;;;;;;8.05;2.60;;;;;;;;;;6165475;23;20021;-52
2022/06/11 14:13:53;;;;;;;9.35;2.85;;;;;;;;;;6171318;23;20009;-52
2022/06/11 14:16:31;;;;;;;8.18;2.50;;;;;;;;;;6167961;23;20076;-51
2022/06/11 14:18:57;;;;;;;5.32;1.77;;;;;;;;;;6170592;23;20009;-50
2022/06/11 14:21:37;;;;;;;9.98;2.35;;;;;;;;;;6169825;23;20642;-50
2022/06/11 14:24:04;;;;;;;10.20;2.63;;;;;;;;;;6171712;23;20020;-51
2022/06/11 14:26:43;;;;;;;3.60;1.88;;;;;;;;;;6165591;23;20028;-49
2022/06/11 14:29:16;;;;;;;9.18;2.60;;;;;;;;;;6170024;23;20037;-54
2022/06/11 14:31:53;;;;;;;10.50;2.28;;;;;;;;;;6170069;23;20009;-52
2022/06/11 14:34:20;;;;;;;9.20;2.85;;;;;;;;;;6162153;23;20019;-53
2022/06/11 14:37:00;;;;;;;6.15;2.20;;;;;;;;;;6168423;23;20076;-47
2022/06/11 14:39:34;;;;;;;12.10;2.58;;;;;;;;;;6168285;23;20073;-50
2022/06/11 14:42:08;;;;;;;10.63;2.70;;;;;;;;;;6168459;23;20098;-51
2022/06/11 14:44:34;;;;;;;7.93;2.53;;;;;;;;;;6170269;23;20019;-52
2022/06/11 14:47:00;;;;;;;10.00;2.22;;;;;;;;;;6166171;23;20021;-52
2022/06/11 14:49:25;;;;;;;7.13;2.65;;;;;;;;;;6166695;23;20010;-50
2022/06/11 14:52:03;;;;;;;10.20;2.72;;;;;;;;;;6169429;23;20013;-50
2022/06/11 14:54:40;;;;;;;7.03;2.35;;;;;;;;;;6164077;23;20100;-53